createdAt,value
2018-05-05T00:03:46.133Z,101839.92
2018-05-05T00:08:40.514Z,101838.66
2018-05-05T00:13:35.649Z,101837.98
2018-05-05T00:18:30.027Z,101841.83
2018-05-05T00:23:25.403Z,101837.82
2018-05-05T00:28:20.138Z,101841.28
2018-05-05T00:33:14.485Z,101839.01
2018-05-05T00:38:09.620Z,101828.84
2018-05-05T00:43:03.972Z,101833.99
2018-05-05T00:47:58.382Z,101835.27
2018-05-05T00:52:52.724Z,101832.97
2018-05-05T00:57:47.077Z,101831.16
2018-05-05T01:02:41.473Z,101831.52
2018-05-05T01:07:35.815Z,101826.16
2018-05-05T01:12:30.940Z,101830.92
2018-05-05T01:17:25.821Z,101834.34
2018-05-05T01:22:20.187Z,101828.11
2018-05-05T01:27:14.552Z,101832.02
2018-05-05T01:32:09.125Z,101829.20
2018-05-05T01:37:03.453Z,101833.53
2018-05-05T01:41:58.588Z,101832.97
2018-05-05T01:46:53.905Z,101839.91
2018-05-05T01:51:49.029Z,101834.91
2018-05-05T01:56:44.486Z,101843.58
2018-05-05T02:01:38.899Z,101841.67
2018-05-05T02:06:33.470Z,101839.66
2018-05-05T02:11:28.354Z,101847.02
2018-05-05T02:16:22.716Z,101843.72
2018-05-05T02:21:17.053Z,101852.72
2018-05-05T02:26:11.756Z,101860.94
2018-05-05T02:31:05.865Z,101859.84
2018-05-05T02:36:01.710Z,101867.18
2018-05-05T02:40:56.065Z,101867.80
2018-05-05T02:45:50.416Z,101870.63
2018-05-05T02:50:44.774Z,101872.59
2018-05-05T02:55:39.154Z,101874.86
2018-05-05T03:00:33.492Z,101872.77
2018-05-05T03:05:27.869Z,101861.85
2018-05-05T03:10:22.292Z,101866.33
2018-05-05T03:15:16.417Z,101853.27
2018-05-05T03:20:10.792Z,101856.45
2018-05-05T03:25:04.908Z,101857.90
2018-05-05T03:29:59.248Z,101855.43
2018-05-05T03:34:54.553Z,101856.08
2018-05-05T03:39:49.140Z,101865.09
2018-05-05T03:44:43.605Z,101849.86
2018-05-05T03:49:39.684Z,101857.00
2018-05-05T03:54:34.149Z,101862.88
2018-05-05T03:59:45.588Z,101858.88
2018-05-05T04:21:04.072Z,101883.80
2018-05-05T04:25:58.514Z,101886.73
2018-05-05T04:30:52.944Z,101882.99
2018-05-05T04:35:47.300Z,101883.94
2018-05-05T04:40:41.702Z,101891.16
2018-05-05T04:45:36.295Z,101893.41
2018-05-05T04:50:30.648Z,101890.60
2018-05-05T04:55:24.994Z,101899.28
2018-05-05T05:00:19.365Z,101899.58
2018-05-05T05:05:13.785Z,101904.17
2018-05-05T05:10:08.003Z,101889.25
2018-05-05T05:15:02.112Z,101890.52
2018-05-05T05:19:56.488Z,101897.39
2018-05-05T05:24:50.857Z,101896.97
2018-05-05T05:29:45.198Z,101886.23
2018-05-05T05:34:39.591Z,101888.42
2018-05-05T05:39:33.966Z,101898.11
2018-05-05T05:44:28.329Z,101890.92
2018-05-05T05:49:22.795Z,101894.44
2018-05-05T05:54:17.133Z,101892.73
2018-05-05T05:59:11.254Z,101889.22
2018-05-05T06:04:06.387Z,101894.85
2018-05-05T06:09:00.852Z,101888.88
2018-05-05T06:13:55.240Z,101885.70
2018-05-05T06:18:49.646Z,101889.42
2018-05-05T06:23:44.033Z,101897.24
2018-05-05T06:28:38.838Z,101877.27
2018-05-05T06:33:34.452Z,101880.30
2018-05-05T06:38:29.174Z,101881.34
2018-05-05T06:43:24.749Z,101887.62
2018-05-05T06:48:20.456Z,101877.31
2018-05-05T06:53:15.066Z,101878.63
2018-05-05T06:58:09.811Z,101879.61
2018-05-05T07:03:04.456Z,101882.23
2018-05-05T07:08:00.268Z,101879.52
2018-05-05T07:12:55.071Z,101877.06
2018-05-05T07:17:49.754Z,101876.05
2018-05-05T07:22:44.381Z,101872.59
2018-05-05T07:27:39.124Z,101871.05
2018-05-05T07:32:33.756Z,101879.03
2018-05-05T07:37:29.160Z,101874.23
2018-05-05T07:42:23.762Z,101869.42
2018-05-05T07:47:18.384Z,101860.05
2018-05-05T07:52:13.300Z,101863.48
2018-05-05T07:57:08.074Z,101864.63
2018-05-05T08:02:02.727Z,101866.73
2018-05-05T08:06:58.110Z,101852.86
2018-05-05T08:11:52.997Z,101855.59
2018-05-05T08:16:52.288Z,101852.32
2018-05-05T08:21:47.112Z,101857.84
2018-05-05T08:26:42.965Z,101862.69
2018-05-05T08:31:37.583Z,101876.36
2018-05-05T08:36:32.538Z,101869.00
2018-05-05T08:41:26.939Z,101860.53
2018-05-05T08:46:21.569Z,101862.28
2018-05-05T08:51:16.322Z,101865.87
2018-05-05T08:56:10.921Z,101868.80
2018-05-05T09:01:05.667Z,101869.64
2018-05-05T09:06:00.280Z,101870.25
2018-05-05T09:10:54.900Z,101860.50
2018-05-05T09:15:51.018Z,101869.24
2018-05-05T09:20:45.697Z,101871.73
2018-05-05T09:25:40.320Z,101870.01
2018-05-05T09:30:34.945Z,101864.65
2018-05-05T09:35:29.561Z,101852.97
2018-05-05T09:40:24.190Z,101845.30
2018-05-05T09:45:18.801Z,101849.35
2018-05-05T09:50:13.684Z,101845.38
2018-05-05T09:55:08.456Z,101844.44
2018-05-05T10:00:03.462Z,101830.54
2018-05-05T10:04:58.852Z,101827.66
2018-05-05T10:09:53.686Z,101829.67
2018-05-05T10:14:48.239Z,101836.68
2018-05-05T10:19:42.598Z,101825.95
2018-05-05T10:24:36.989Z,101821.44
2018-05-05T10:29:31.384Z,101821.20
2018-05-05T10:34:25.871Z,101815.03
2018-05-05T10:39:20.294Z,101808.57
2018-05-05T10:44:14.770Z,101804.45
2018-05-05T10:49:09.128Z,101800.66
2018-05-05T10:54:03.507Z,101799.91
2018-05-05T10:58:58.029Z,101792.70
2018-05-05T11:03:53.144Z,101783.16
2018-05-05T11:08:48.450Z,101784.38
2018-05-05T11:13:42.542Z,101783.14
2018-05-05T11:18:37.516Z,101778.83
2018-05-05T11:23:31.972Z,101771.17
2018-05-05T11:28:26.306Z,101763.72
2018-05-05T11:33:21.188Z,101762.47
2018-05-05T11:38:15.540Z,101763.52
2018-05-05T11:43:10.161Z,101755.70
2018-05-05T11:48:04.603Z,101765.59
2018-05-05T11:52:59.094Z,101753.02
2018-05-05T11:57:53.547Z,101749.61
2018-05-05T12:02:47.874Z,101751.44
2018-05-05T12:07:42.262Z,101747.30
2018-05-05T12:12:43.111Z,101750.48
2018-05-05T12:17:37.888Z,101746.44
2018-05-05T12:22:34.111Z,101740.31
2018-05-05T12:27:31.140Z,101735.96
2018-05-05T12:32:25.784Z,101724.41
2018-05-05T12:37:23.397Z,101727.81
2018-05-05T12:42:20.786Z,101720.31
2018-05-05T12:47:16.272Z,101719.09
2018-05-05T12:52:11.795Z,101715.80
2018-05-05T12:57:06.132Z,101722.41
2018-05-05T13:02:02.848Z,101702.38
2018-05-05T13:06:58.183Z,101706.52
2018-05-05T13:11:52.798Z,101702.09
2018-05-05T13:16:47.135Z,101693.37
2018-05-05T13:21:42.297Z,101686.05
2018-05-05T13:26:36.779Z,101689.37
2018-05-05T13:31:30.997Z,101681.30
2018-05-05T13:36:25.410Z,101675.55
2018-05-05T13:41:19.909Z,101667.85
2018-05-05T13:46:14.317Z,101664.83
2018-05-05T13:51:09.582Z,101661.88
2018-05-05T13:56:03.732Z,101656.83
2018-05-05T14:00:58.274Z,101651.30
2018-05-05T14:05:52.624Z,101648.73
2018-05-05T14:10:47.021Z,101641.70
2018-05-05T14:15:41.356Z,101637.59
2018-05-05T14:20:35.715Z,101640.30
2018-05-05T14:25:30.109Z,101630.20
2018-05-05T14:30:25.406Z,101632.59
2018-05-05T14:35:19.968Z,101625.38
2018-05-05T14:40:14.308Z,101625.50
2018-05-05T14:45:08.765Z,101617.20
2018-05-05T14:50:03.206Z,101611.25
2018-05-05T14:54:57.546Z,101616.70
2018-05-05T14:59:52.684Z,101606.63
2018-05-05T15:04:47.770Z,101601.38
2018-05-05T15:09:43.164Z,101599.80
2018-05-05T15:14:37.512Z,101606.22
2018-05-05T15:19:32.665Z,101608.50
2018-05-05T15:24:27.017Z,101602.05
2018-05-05T15:29:21.360Z,101602.08
2018-05-05T15:34:16.852Z,101602.48
2018-05-05T15:39:11.447Z,101596.03
2018-05-05T15:44:05.823Z,101596.65
2018-05-05T15:49:00.538Z,101593.55
2018-05-05T15:53:54.960Z,101588.68
2018-05-05T15:58:49.397Z,101588.02
2018-05-05T16:03:44.780Z,101585.64
2018-05-05T16:08:39.166Z,101583.42
2018-05-05T16:13:33.532Z,101571.80
2018-05-05T16:18:28.816Z,101570.73
2018-05-05T16:23:23.245Z,101574.53
2018-05-05T16:28:18.484Z,101581.37
2018-05-05T16:33:13.641Z,101573.95
2018-05-05T16:38:07.978Z,101571.90
2018-05-05T16:43:02.617Z,101571.58
2018-05-05T16:47:57.758Z,101559.55
2018-05-05T16:52:52.116Z,101555.36
2018-05-05T16:57:46.505Z,101554.02
2018-05-05T17:02:40.860Z,101555.81
2018-05-05T17:07:35.218Z,101555.82
2018-05-05T17:12:30.505Z,101565.94
2018-05-05T17:17:24.938Z,101572.03
2018-05-05T17:22:19.362Z,101571.58
2018-05-05T17:27:13.642Z,101582.53
2018-05-05T17:32:08.023Z,101573.61
2018-05-05T17:37:02.404Z,101580.73
2018-05-05T17:41:56.803Z,101586.86
2018-05-05T17:46:51.313Z,101585.84
2018-05-05T17:51:45.434Z,101581.61
2018-05-05T17:56:39.838Z,101582.73
2018-05-05T18:01:34.596Z,101593.66
2018-05-05T18:06:29.867Z,101592.50
2018-05-05T18:11:41.731Z,101597.98
2018-05-05T18:16:49.742Z,101604.25
2018-05-05T18:21:43.924Z,101601.62
2018-05-05T18:26:38.768Z,101607.94
2018-05-05T18:31:33.623Z,101610.20
2018-05-05T18:36:28.269Z,101615.84
2018-05-05T18:41:25.394Z,101618.12
2018-05-05T18:46:22.444Z,101620.54
2018-05-05T18:51:17.506Z,101620.00
2018-05-05T18:56:12.144Z,101624.05
2018-05-05T19:01:06.881Z,101632.56
2018-05-05T19:06:01.771Z,101632.90
2018-05-05T19:10:56.481Z,101644.85
2018-05-05T19:15:51.205Z,101652.77
2018-05-05T19:20:49.179Z,101653.24
2018-05-05T19:25:43.612Z,101658.97
2018-05-05T19:30:38.584Z,101663.22
2018-05-05T19:35:32.971Z,101665.56
2018-05-05T19:40:27.347Z,101666.75
2018-05-05T19:45:21.911Z,101663.27
2018-05-05T19:50:16.443Z,101667.77
2018-05-05T19:55:11.070Z,101673.74
2018-05-05T20:00:05.476Z,101679.56
2018-05-05T20:04:59.716Z,101678.15
2018-05-05T20:09:54.114Z,101687.59
2018-05-05T20:14:49.729Z,101694.27
2018-05-05T20:19:44.993Z,101694.34
2018-05-05T20:24:39.383Z,101702.25
2018-05-05T20:29:34.045Z,101712.41
2018-05-05T20:34:29.448Z,101706.27
2018-05-05T20:39:23.972Z,101713.48
2018-05-05T20:44:18.336Z,101718.20
2018-05-05T20:49:12.694Z,101724.14
2018-05-05T20:54:07.806Z,101734.44
2018-05-05T20:59:02.286Z,101737.89
2018-05-05T21:03:56.496Z,101744.76
2018-05-05T21:08:50.865Z,101750.47
2018-05-05T21:13:45.248Z,101747.13
2018-05-05T21:18:39.852Z,101752.52
2018-05-05T21:23:34.208Z,101759.08
2018-05-05T21:28:28.879Z,101763.98
2018-05-05T21:33:23.406Z,101769.27
2018-05-05T21:38:17.942Z,101766.33
2018-05-05T21:43:12.662Z,101769.39
2018-05-05T21:48:07.779Z,101771.61
2018-05-05T21:53:02.916Z,101777.25
2018-05-05T21:57:57.895Z,101775.66
2018-05-05T22:02:52.290Z,101777.36
2018-05-05T22:07:46.664Z,101774.62
2018-05-05T22:12:41.021Z,101777.33
2018-05-05T22:17:35.385Z,101782.50
2018-05-05T22:22:29.779Z,101786.95
2018-05-05T22:27:24.267Z,101785.14
2018-05-05T22:32:18.670Z,101781.60
2018-05-05T22:37:13.028Z,101785.38
2018-05-05T22:42:07.391Z,101787.91
2018-05-05T22:47:01.614Z,101789.91
2018-05-05T22:51:56.836Z,101792.43
2018-05-05T22:56:51.180Z,101787.88
2018-05-05T23:01:46.348Z,101789.55
2018-05-05T23:06:40.702Z,101797.45
2018-05-05T23:11:36.031Z,101791.11
2018-05-05T23:16:31.383Z,101797.62
2018-05-05T23:21:25.721Z,101798.71
2018-05-05T23:26:20.092Z,101795.86
2018-05-05T23:31:14.359Z,101798.56
2018-05-05T23:36:09.489Z,101792.27
2018-05-05T23:41:03.818Z,101797.15
2018-05-05T23:45:58.168Z,101800.84
2018-05-05T23:50:52.516Z,101799.08
2018-05-05T23:55:46.635Z,101796.14
